Time,TemperatureF,DewpointF,PressureIn,WindDirection,WindDirectionDegrees,WindSpeedMPH,WindSpeedGustMPH,Humidity,HourlyPrecipIn,Conditions,Clouds,dailyrainin,SoftwareType,DateUTC
2013-07-02 00:01:00,76.5,73.3,30.00,North,355,0.0,0.0,90,0.00,RA,OVC,0.00,WeatherDisplay:10.37,2013-07-02 04:01:00,
2013-07-02 00:06:00,76.7,73.5,30.00,North,355,0.0,0.0,90,0.00,RA,OVC,0.00,WeatherDisplay:10.37,2013-07-02 04:06:00,
2013-07-02 00:11:00,76.8,73.6,30.00,North,355,0.0,0.0,90,0.00,SCT,OVC,0.00,WeatherDisplay:10.37,2013-07-02 04:11:00,
2013-07-02 00:16:00,76.8,73.3,30.00,North,355,0.0,0.0,89,0.00,SCT,OVC,0.00,WeatherDisplay:10.37,2013-07-02 04:16:00,
2013-07-02 00:21:00,76.8,73.3,30.00,North,355,0.0,0.0,89,0.00,SCT,OVC,0.00,WeatherDisplay:10.37,2013-07-02 04:21:00,
2013-07-02 00:26:00,76.7,73.2,30.00,North,355,0.0,0.0,89,0.00,SCT,OVC,0.00,WeatherDisplay:10.37,2013-07-02 04:26:00,
2013-07-02 00:31:00,76.7,73.5,30.00,North,355,0.0,0.0,90,0.00,SCT,OVC,0.00,WeatherDisplay:10.37,2013-07-02 04:31:00,
2013-07-02 00:36:00,76.8,73.6,30.00,North,355,0.0,0.0,90,0.00,SCT,OVC,0.00,WeatherDisplay:10.37,2013-07-02 04:36:00,
2013-07-02 00:41:00,76.7,73.5,30.00,North,355,0.0,0.0,90,0.00,SCT,OVC,0.00,WeatherDisplay:10.37,2013-07-02 04:41:00,
2013-07-02 00:46:00,76.7,73.5,30.00,North,355,0.0,0.0,90,0.00,SCT,OVC,0.00,WeatherDisplay:10.37,2013-07-02 04:46:00,
2013-07-02 00:51:00,76.7,73.5,30.00,North,355,0.0,0.0,90,0.00,SCT,OVC,0.00,WeatherDisplay:10.37,2013-07-02 04:51:00,
2013-07-02 00:56:00,76.8,73.6,30.00,North,355,0.0,0.0,90,0.00,SCT,OVC,0.00,WeatherDisplay:10.37,2013-07-02 04:56:00,
2013-07-02 01:01:00,76.8,73.6,29.99,North,355,0.0,0.0,90,0.00,SCT,OVC,0.00,WeatherDisplay:10.37,2013-07-02 05:01:00,
2013-07-02 01:06:00,77.0,73.8,29.99,North,355,0.0,0.0,90,0.00,SCT,OVC,0.00,WeatherDisplay:10.37,2013-07-02 05:06:00,
2013-07-02 01:11:00,77.0,73.8,29.99,North,355,0.0,0.0,90,0.00,SCT,OVC,0.00,WeatherDisplay:10.37,2013-07-02 05:11:00,
2013-07-02 01:16:00,77.0,73.8,29.99,North,355,0.0,0.0,90,0.00,SCT,OVC,0.00,WeatherDisplay:10.37,2013-07-02 05:16:00,
2013-07-02 01:21:00,77.0,73.8,29.99,North,355,0.0,0.0,90,0.00,SCT,OVC,0.00,WeatherDisplay:10.37,2013-07-02 05:21:00,
2013-07-02 01:26:00,77.0,73.8,29.99,North,355,0.0,0.0,90,0.00,SCT,OVC,0.00,WeatherDisplay:10.37,2013-07-02 05:26:00,
2013-07-02 01:32:00,76.8,73.6,29.99,North,355,0.0,0.0,90,0.00,SCT,OVC,0.00,WeatherDisplay:10.37,2013-07-02 05:32:00,
2013-07-02 01:37:00,76.8,73.6,29.99,North,355,0.0,0.0,90,0.00,SCT,OVC,0.00,WeatherDisplay:10.37,2013-07-02 05:37:00,
2013-07-02 01:42:00,76.7,73.9,29.99,North,355,0.0,0.0,91,0.00,SCT,OVC,0.00,WeatherDisplay:10.37,2013-07-02 05:42:00,
2013-07-02 01:47:00,76.7,73.9,29.98,North,355,0.0,0.0,91,0.00,SCT,OVC,0.00,WeatherDisplay:10.37,2013-07-02 05:47:00,
2013-07-02 01:52:00,76.7,73.9,29.98,North,355,0.0,0.0,91,0.00,SCT,OVC,0.00,WeatherDisplay:10.37,2013-07-02 05:52:00,
2013-07-02 01:57:00,76.8,74.0,29.98,North,355,0.0,0.0,91,0.00,SCT,OVC,0.00,WeatherDisplay:10.37,2013-07-02 05:57:00,
2013-07-02 02:02:00,77.2,74.4,29.97,North,355,0.0,0.0,91,0.00,SCT,OVC,0.00,WeatherDisplay:10.37,2013-07-02 06:02:00,
2013-07-02 02:07:00,77.2,74.4,29.97,North,355,0.0,0.0,91,0.00,SCT,OVC,0.00,WeatherDisplay:10.37,2013-07-02 06:07:00,
2013-07-02 02:12:00,77.4,74.6,29.97,North,355,0.0,0.0,91,0.00,SCT,OVC,0.00,WeatherDisplay:10.37,2013-07-02 06:12:00,
2013-07-02 02:17:00,77.7,74.9,29.96,NE,44,0.0,0.0,91,0.00,SCT,OVC,0.00,WeatherDisplay:10.37,2013-07-02 06:17:00,
2013-07-02 02:22:00,77.9,75.1,29.96,NE,44,0.0,0.0,91,0.00,SCT,OVC,0.00,WeatherDisplay:10.37,2013-07-02 06:22:00,
2013-07-02 02:27:00,77.9,75.1,29.96,NE,44,0.0,0.0,91,0.00,SCT,OVC,0.00,WeatherDisplay:10.37,2013-07-02 06:27:00,
2013-07-02 02:32:00,78.1,75.3,29.96,NE,46,0.0,0.0,91,0.00,SCT,OVC,0.00,WeatherDisplay:10.37,2013-07-02 06:32:00,
2013-07-02 02:37:00,78.5,75.7,29.96,NE,46,0.0,0.0,91,0.00,SCT,OVC,0.00,WeatherDisplay:10.37,2013-07-02 06:37:00,
2013-07-02 02:42:00,78.6,75.8,29.96,NE,55,0.0,0.0,91,0.00,SCT,OVC,0.00,WeatherDisplay:10.37,2013-07-02 06:42:00,
2013-07-02 02:47:00,78.8,75.9,29.96,ENE,58,0.0,0.0,91,0.00,SCT,OVC,0.00,WeatherDisplay:10.37,2013-07-02 06:47:00,
2013-07-02 02:52:00,79.0,76.1,29.96,ESE,115,0.0,0.0,91,0.00,SCT,OVC,0.00,WeatherDisplay:10.37,2013-07-02 06:52:00,
2013-07-02 02:57:00,79.2,76.3,29.96,SE,127,0.0,0.0,91,0.00,SCT,OVC,0.00,WeatherDisplay:10.37,2013-07-02 06:57:00,
2013-07-02 03:02:00,79.4,76.5,29.95,SE,129,0.0,0.0,91,0.01,RA,OVC,0.01,WeatherDisplay:10.37,2013-07-02 07:02:00,
2013-07-02 03:07:00,79.4,76.5,29.95,SSE,148,0.0,0.0,91,0.01,RA,OVC,0.01,WeatherDisplay:10.37,2013-07-02 07:07:00,
2013-07-02 03:12:00,79.4,76.2,29.95,SE,146,0.0,0.0,90,0.01,SCT,OVC,0.01,WeatherDisplay:10.37,2013-07-02 07:12:00,
2013-07-02 03:17:00,79.4,76.2,29.95,SE,146,0.0,0.0,90,0.01,SCT,OVC,0.01,WeatherDisplay:10.37,2013-07-02 07:17:00,
2013-07-02 03:22:00,79.4,76.2,29.95,SE,146,0.0,0.0,90,0.01,SCT,OVC,0.01,WeatherDisplay:10.37,2013-07-02 07:22:00,
2013-07-02 03:27:00,79.2,76.0,29.95,SSE,148,0.0,0.0,90,0.01,SCT,OVC,0.01,WeatherDisplay:10.37,2013-07-02 07:27:00,
2013-07-02 03:32:00,78.8,75.3,29.95,SE,146,5.8,0.0,89,0.01,SCT,OVC,0.01,WeatherDisplay:10.37,2013-07-02 07:32:00,
2013-07-02 03:37:00,78.5,74.3,29.95,SE,135,6.9,0.0,87,0.01,SCT,OVC,0.01,WeatherDisplay:10.37,2013-07-02 07:37:00,
2013-07-02 03:42:00,78.5,74.0,29.95,SE,137,0.0,0.0,86,0.01,SCT,OVC,0.01,WeatherDisplay:10.37,2013-07-02 07:42:00,
2013-07-02 03:47:00,78.3,73.8,29.95,SE,137,0.0,0.0,86,0.01,SCT,OVC,0.01,WeatherDisplay:10.37,2013-07-02 07:47:00,
2013-07-02 03:52:00,78.3,73.8,29.95,SE,137,0.0,0.0,86,0.01,SCT,OVC,0.01,WeatherDisplay:10.37,2013-07-02 07:52:00,
2013-07-02 03:57:00,78.1,73.2,29.95,SE,137,0.0,0.0,85,0.01,SCT,OVC,0.01,WeatherDisplay:10.37,2013-07-02 07:57:00,
2013-07-02 04:02:00,77.7,72.8,29.95,SE,138,0.0,0.0,85,0.00,SCT,OVC,0.01,WeatherDisplay:10.37,2013-07-02 08:02:00,
2013-07-02 04:07:00,77.7,72.5,29.95,SE,144,6.9,6.9,84,0.00,SCT,OVC,0.01,WeatherDisplay:10.37,2013-07-02 08:07:00,
2013-07-02 04:12:00,77.9,72.7,29.95,SE,135,0.0,1.1,84,0.00,SCT,OVC,0.01,WeatherDisplay:10.37,2013-07-02 08:12:00,
2013-07-02 04:17:00,78.1,72.9,29.95,SE,136,0.0,0.0,84,0.00,SCT,OVC,0.01,WeatherDisplay:10.37,2013-07-02 08:17:00,
2013-07-02 04:22:00,78.1,72.9,29.95,SE,136,0.0,0.0,84,0.00,SCT,OVC,0.01,WeatherDisplay:10.37,2013-07-02 08:22:00,
2013-07-02 04:27:00,78.1,72.9,29.95,SE,136,0.0,0.0,84,0.00,SCT,OVC,0.01,WeatherDisplay:10.37,2013-07-02 08:27:00,
2013-07-02 04:32:00,78.1,73.2,29.94,SE,136,0.0,0.0,85,0.00,SCT,OVC,0.01,WeatherDisplay:10.37,2013-07-02 08:32:00,
2013-07-02 04:37:00,77.9,73.4,29.94,SE,136,0.0,0.0,86,0.00,SCT,OVC,0.01,WeatherDisplay:10.37,2013-07-02 08:37:00,
2013-07-02 04:42:00,78.1,73.6,29.94,SE,135,0.0,0.0,86,0.00,SCT,OVC,0.01,WeatherDisplay:10.37,2013-07-02 08:42:00,
2013-07-02 04:47:00,78.1,73.9,29.94,SE,136,0.0,0.0,87,0.00,SCT,OVC,0.01,WeatherDisplay:10.37,2013-07-02 08:47:00,
2013-07-02 04:52:00,78.1,73.9,29.94,SE,136,0.0,0.0,87,0.00,SCT,OVC,0.01,WeatherDisplay:10.37,2013-07-02 08:52:00,
2013-07-02 04:57:00,77.9,73.7,29.94,SE,136,0.0,0.0,87,0.00,SCT,OVC,0.01,WeatherDisplay:10.37,2013-07-02 08:57:00,
2013-07-02 05:02:00,78.1,74.3,29.94,SE,136,0.0,0.0,88,0.00,SCT,OVC,0.01,WeatherDisplay:10.37,2013-07-02 09:02:00,
2013-07-02 05:07:00,78.1,74.3,29.94,SE,135,0.0,0.0,88,0.00,SCT,OVC,0.01,WeatherDisplay:10.37,2013-07-02 09:07:00,
2013-07-02 05:12:00,78.3,74.8,29.94,SE,138,0.0,0.0,89,0.00,SCT,OVC,0.01,WeatherDisplay:10.37,2013-07-02 09:12:00,
2013-07-02 05:17:00,78.5,75.0,29.94,SE,138,0.0,0.0,89,0.00,SCT,OVC,0.01,WeatherDisplay:10.37,2013-07-02 09:17:00,
2013-07-02 05:22:00,79.0,75.5,29.94,SE,134,8.0,8.0,89,0.00,SCT,OVC,0.01,WeatherDisplay:10.37,2013-07-02 09:22:00,
2013-07-02 05:27:00,79.4,75.9,29.94,SE,133,17.3,17.3,89,0.00,SCT,OVC,0.01,WeatherDisplay:10.37,2013-07-02 09:27:00,
2013-07-02 05:32:00,79.6,76.1,29.95,SE,133,8.0,8.0,89,0.00,SCT,OVC,0.01,WeatherDisplay:10.37,2013-07-02 09:32:00,
2013-07-02 05:37:00,79.8,75.9,29.95,SSE,150,11.5,11.5,88,0.00,SCT,OVC,0.01,WeatherDisplay:10.37,2013-07-02 09:37:00,
2013-07-02 05:42:00,80.1,75.9,29.95,SE,146,13.8,13.8,87,0.00,SCT,OVC,0.01,WeatherDisplay:10.37,2013-07-02 09:42:00,
2013-07-02 05:47:00,80.3,76.1,29.96,SE,138,2.3,0.0,87,0.00,SCT,OVC,0.01,WeatherDisplay:10.37,2013-07-02 09:47:00,
2013-07-02 05:52:00,80.5,75.9,29.96,ENE,65,8.1,8.1,86,0.00,SCT,OVC,0.01,WeatherDisplay:10.37,2013-07-02 09:52:00,
2013-07-02 05:57:00,80.5,75.6,29.96,SSE,147,5.8,5.8,85,0.00,SCT,OVC,0.01,WeatherDisplay:10.37,2013-07-02 09:57:00,
2013-07-02 06:02:00,80.7,75.8,29.96,SE,138,19.6,19.6,85,0.00,SCT,OVC,0.01,WeatherDisplay:10.37,2013-07-02 10:02:00,
2013-07-02 06:07:00,80.7,75.8,29.96,SE,136,4.6,4.6,85,0.00,SCT,OVC,0.01,WeatherDisplay:10.37,2013-07-02 10:07:00,
2013-07-02 06:12:00,80.9,76.0,29.96,SSE,148,10.4,10.4,85,0.00,SCT,OVC,0.01,WeatherDisplay:10.37,2013-07-02 10:12:00,
2013-07-02 06:17:00,80.9,75.6,29.96,SE,138,8.0,8.0,84,0.00,SCT,OVC,0.01,WeatherDisplay:10.37,2013-07-02 10:17:00,
2013-07-02 06:23:00,81.1,75.8,29.96,SE,134,10.4,10.4,84,0.00,SCT,OVC,0.01,WeatherDisplay:10.37,2013-07-02 10:23:00,
2013-07-02 06:28:00,81.1,75.8,29.96,ESE,123,11.5,0.0,84,0.00,SCT,OVC,0.01,WeatherDisplay:10.37,2013-07-02 10:28:00,
2013-07-02 06:33:00,81.1,75.8,29.97,SE,144,18.4,18.4,84,0.00,SCT,OVC,0.01,WeatherDisplay:10.37,2013-07-02 10:33:00,
2013-07-02 06:38:00,81.1,75.8,29.97,SE,140,4.6,4.6,84,0.00,SCT,OVC,0.01,WeatherDisplay:10.37,2013-07-02 10:38:00,
2013-07-02 06:43:00,81.2,75.9,29.97,SE,142,11.5,11.5,84,0.00,SCT,OVC,0.01,WeatherDisplay:10.37,2013-07-02 10:43:00,
2013-07-02 06:48:00,81.2,75.9,29.97,SE,136,0.0,0.0,84,0.00,SCT,OVC,0.01,WeatherDisplay:10.37,2013-07-02 10:48:00,
2013-07-02 06:53:00,81.2,75.9,29.97,SSE,150,9.2,9.2,84,0.00,SCT,OVC,0.01,WeatherDisplay:10.37,2013-07-02 10:53:00,
2013-07-02 06:58:00,81.2,75.5,29.97,SE,142,16.1,16.1,83,0.00,SCT,OVC,0.01,WeatherDisplay:10.37,2013-07-02 10:58:00,
2013-07-02 07:03:00,81.2,75.5,29.98,SE,130,16.1,16.1,83,0.00,SCT,OVC,0.01,WeatherDisplay:10.37,2013-07-02 11:03:00,
2013-07-02 07:08:00,81.4,75.7,29.98,SE,138,12.7,12.7,83,0.00,SCT,OVC,0.01,WeatherDisplay:10.37,2013-07-02 11:08:00,
2013-07-02 07:13:00,81.4,75.7,29.98,SE,136,12.7,12.7,83,0.00,SCT,OVC,0.01,WeatherDisplay:10.37,2013-07-02 11:13:00,
2013-07-02 07:18:00,81.4,75.7,29.98,ESE,122,3.5,3.5,83,0.00,SCT,OVC,0.01,WeatherDisplay:10.37,2013-07-02 11:18:00,
2013-07-02 07:23:00,81.6,75.6,29.98,SE,134,12.7,12.7,82,0.00,SCT,OVC,0.01,WeatherDisplay:10.37,2013-07-02 11:23:00,
2013-07-02 07:28:00,81.8,75.8,29.98,SSE,155,3.5,0.0,82,0.00,SCT,OVC,0.01,WeatherDisplay:10.37,2013-07-02 11:28:00,
2013-07-02 07:33:00,81.8,75.8,29.98,SE,129,6.9,6.9,82,0.00,SCT,OVC,0.01,WeatherDisplay:10.37,2013-07-02 11:33:00,
2013-07-02 07:38:00,82.0,76.0,29.98,SE,130,18.4,18.4,82,0.00,SCT,OVC,0.01,WeatherDisplay:10.37,2013-07-02 11:38:00,
2013-07-02 07:43:00,82.2,75.8,29.98,SE,146,21.9,21.9,81,0.00,SCT,OVC,0.01,WeatherDisplay:10.37,2013-07-02 11:43:00,
2013-07-02 07:48:00,82.6,75.8,29.99,SSE,154,10.4,10.4,80,0.00,SCT,OVC,0.01,WeatherDisplay:10.37,2013-07-02 11:48:00,
2013-07-02 07:53:00,82.6,75.8,29.99,SE,124,11.5,11.5,80,0.00,SCT,OVC,0.01,WeatherDisplay:10.37,2013-07-02 11:53:00,
2013-07-02 07:58:00,83.0,76.6,29.99,SE,143,11.5,11.5,81,0.00,SCT,OVC,0.01,WeatherDisplay:10.37,2013-07-02 11:58:00,
2013-07-02 08:03:00,83.2,76.4,29.99,SSE,157,6.9,6.9,80,0.00,SCT,OVC,0.01,WeatherDisplay:10.37,2013-07-02 12:03:00,
2013-07-02 08:08:00,83.2,76.4,29.99,SE,140,17.3,17.3,80,0.00,SCT,OVC,0.01,WeatherDisplay:10.37,2013-07-02 12:08:00,
2013-07-02 08:13:00,83.2,76.0,29.99,SSE,147,11.5,11.5,79,0.00,SCT,OVC,0.01,WeatherDisplay:10.37,2013-07-02 12:13:00,
2013-07-02 08:18:00,83.2,76.0,30.00,SSE,149,19.6,19.6,79,0.00,SCT,OVC,0.01,WeatherDisplay:10.37,2013-07-02 12:18:00,
2013-07-02 08:23:00,83.2,76.0,30.00,SSE,150,14.0,14.0,79,0.00,SCT,OVC,0.01,WeatherDisplay:10.37,2013-07-02 12:23:00,
2013-07-02 08:28:00,83.2,76.4,30.00,SSE,148,18.4,18.4,80,0.00,SCT,OVC,0.01,WeatherDisplay:10.37,2013-07-02 12:28:00,
2013-07-02 08:33:00,83.2,76.4,30.00,SE,134,2.3,2.3,80,0.00,SCT,OVC,0.01,WeatherDisplay:10.37,2013-07-02 12:33:00,
2013-07-02 08:38:00,83.2,76.4,30.00,SE,140,25.3,25.3,80,0.00,SCT,OVC,0.01,WeatherDisplay:10.37,2013-07-02 12:38:00,
2013-07-02 08:43:00,83.2,76.0,30.00,SSE,152,5.8,5.8,79,0.00,SCT,OVC,0.01,WeatherDisplay:10.37,2013-07-02 12:43:00,
2013-07-02 08:48:00,83.2,76.0,30.01,SE,144,12.7,12.7,79,0.00,SCT,OVC,0.01,WeatherDisplay:10.37,2013-07-02 12:48:00,
2013-07-02 08:53:00,83.2,75.6,30.01,SSE,151,31.1,31.1,78,0.00,SCT,OVC,0.01,WeatherDisplay:10.37,2013-07-02 12:53:00,
2013-07-02 08:58:00,83.2,75.6,30.01,SE,132,16.0,16.0,78,0.00,SCT,OVC,0.01,WeatherDisplay:10.37,2013-07-02 12:58:00,
2013-07-02 09:03:00,83.4,75.8,30.01,ESE,113,3.5,0.0,78,0.00,SCT,OVC,0.01,WeatherDisplay:10.37,2013-07-02 13:03:00,
2013-07-02 09:08:00,83.4,75.8,30.01,SE,145,10.4,10.4,78,0.00,SCT,OVC,0.01,WeatherDisplay:10.37,2013-07-02 13:08:00,
2013-07-02 09:13:00,83.4,75.8,30.01,ESE,117,16.1,16.1,78,0.00,SCT,OVC,0.01,WeatherDisplay:10.37,2013-07-02 13:13:00,
2013-07-02 09:18:00,83.6,76.4,30.01,East,97,11.5,11.5,79,0.00,SCT,OVC,0.01,WeatherDisplay:10.37,2013-07-02 13:18:00,
2013-07-02 09:23:00,83.6,76.4,30.01,SE,126,11.5,11.5,79,0.00,SCT,OVC,0.01,WeatherDisplay:10.37,2013-07-02 13:23:00,
2013-07-02 09:28:00,83.8,76.2,30.01,SE,142,10.4,10.4,78,0.00,SCT,OVC,0.01,WeatherDisplay:10.37,2013-07-02 13:28:00,
2013-07-02 09:33:00,83.8,76.2,30.01,SE,136,13.8,13.8,78,0.00,SCT,OVC,0.01,WeatherDisplay:10.37,2013-07-02 13:33:00,
2013-07-02 09:38:00,83.8,76.2,30.01,SE,130,26.5,26.5,78,0.00,SCT,OVC,0.01,WeatherDisplay:10.37,2013-07-02 13:38:00,
2013-07-02 09:43:00,83.8,75.8,30.01,ESE,116,19.6,19.6,77,0.00,SCT,OVC,0.01,WeatherDisplay:10.37,2013-07-02 13:43:00,
2013-07-02 09:48:00,83.8,75.8,30.01,SSE,156,23.0,23.0,77,0.00,SCT,OVC,0.01,WeatherDisplay:10.37,2013-07-02 13:48:00,
2013-07-02 09:53:00,83.8,75.8,30.01,ENE,78,19.6,19.6,77,0.00,SCT,OVC,0.01,WeatherDisplay:10.37,2013-07-02 13:53:00,
2013-07-02 09:58:00,84.0,76.0,30.01,SSE,155,14.0,14.0,77,0.00,SCT,OVC,0.01,WeatherDisplay:10.37,2013-07-02 13:58:00,
2013-07-02 10:03:00,83.8,76.2,30.02,SE,139,15.0,15.0,78,0.00,SCT,OVC,0.01,WeatherDisplay:10.37,2013-07-02 14:03:00,
2013-07-02 10:08:00,83.8,76.2,30.02,SSE,159,16.1,16.1,78,0.00,SCT,OVC,0.01,WeatherDisplay:10.37,2013-07-02 14:08:00,
2013-07-02 10:13:00,83.6,75.6,30.02,SE,142,27.6,27.6,77,0.00,SCT,OVC,0.01,WeatherDisplay:10.37,2013-07-02 14:13:00,
2013-07-02 10:18:00,83.6,75.6,30.02,SE,128,24.2,24.2,77,0.00,SCT,OVC,0.01,WeatherDisplay:10.37,2013-07-02 14:18:00,
2013-07-02 10:23:00,84.0,75.6,30.02,ESE,107,28.0,28.0,76,0.00,SCT,OVC,0.01,WeatherDisplay:10.37,2013-07-02 14:23:00,
2013-07-02 10:28:00,84.3,75.9,30.02,SE,146,13.8,13.8,76,0.00,SCT,OVC,0.01,WeatherDisplay:10.37,2013-07-02 14:28:00,
2013-07-02 10:33:00,84.7,75.9,30.03,SE,143,17.3,17.3,75,0.00,SCT,OVC,0.01,WeatherDisplay:10.37,2013-07-02 14:33:00,
2013-07-02 10:38:00,85.3,76.5,30.03,SE,124,11.5,11.5,75,0.00,SCT,OVC,0.01,WeatherDisplay:10.37,2013-07-02 14:38:00,
2013-07-02 10:43:00,85.5,75.9,30.03,NE,49,31.1,31.1,73,0.00,SCT,OVC,0.01,WeatherDisplay:10.37,2013-07-02 14:43:00,
2013-07-02 10:48:00,85.3,75.7,30.02,SE,140,31.1,31.1,73,0.00,SCT,OVC,0.01,WeatherDisplay:10.37,2013-07-02 14:48:00,
2013-07-02 10:53:00,84.9,75.3,30.02,SE,130,28.8,28.8,73,0.00,SCT,OVC,0.01,WeatherDisplay:10.37,2013-07-02 14:53:00,
2013-07-02 10:58:00,84.9,74.9,30.02,SE,138,27.6,27.6,72,0.00,SCT,OVC,0.01,WeatherDisplay:10.37,2013-07-02 14:58:00,
2013-07-02 11:03:00,85.9,75.4,30.02,SE,137,27.6,27.6,71,0.00,SCT,OVC,0.01,WeatherDisplay:10.37,2013-07-02 15:03:00,
2013-07-02 11:08:00,86.3,74.9,30.02,ESE,120,13.8,13.8,69,0.00,SCT,OVC,0.01,WeatherDisplay:10.37,2013-07-02 15:08:00,
2013-07-02 11:13:00,86.7,75.7,30.02,South,169,34.5,34.5,70,0.00,SCT,OVC,0.01,WeatherDisplay:10.37,2013-07-02 15:13:00,
2013-07-02 11:18:00,87.0,75.6,30.02,SE,141,5.8,5.8,69,0.00,SCT,OVC,0.01,WeatherDisplay:10.37,2013-07-02 15:18:00,
2013-07-02 11:23:00,87.4,75.5,30.02,ESE,117,15.0,0.0,68,0.00,SCT,OVC,0.01,WeatherDisplay:10.37,2013-07-02 15:23:00,
2013-07-02 11:28:00,87.6,75.7,30.02,SE,138,19.6,19.6,68,0.00,SCT,OVC,0.01,WeatherDisplay:10.37,2013-07-02 15:28:00,
2013-07-02 11:33:00,87.0,75.6,30.02,SSE,149,30.0,30.0,69,0.00,SCT,OVC,0.01,WeatherDisplay:10.37,2013-07-02 15:33:00,
2013-07-02 11:38:00,86.3,74.9,30.02,SSE,147,24.2,24.2,69,0.00,SCT,OVC,0.01,WeatherDisplay:10.37,2013-07-02 15:38:00,
2013-07-02 11:43:00,86.7,75.7,30.02,SSE,148,16.1,16.1,70,0.00,SCT,OVC,0.01,WeatherDisplay:10.37,2013-07-02 15:43:00,
2013-07-02 11:48:00,87.0,75.2,30.02,ESE,115,23.0,23.0,68,0.00,SCT,OVC,0.01,WeatherDisplay:10.37,2013-07-02 15:48:00,
2013-07-02 11:53:00,87.4,75.5,30.02,SSE,155,10.4,10.4,68,0.00,SCT,OVC,0.01,WeatherDisplay:10.37,2013-07-02 15:53:00,
2013-07-02 11:58:00,87.8,75.5,30.02,SSE,155,21.9,21.9,67,0.00,SCT,OVC,0.01,WeatherDisplay:10.37,2013-07-02 15:58:00,
2013-07-02 12:03:00,87.4,74.6,30.02,SSE,159,24.2,24.2,66,0.00,SCT,OVC,0.01,WeatherDisplay:10.37,2013-07-02 16:03:00,
2013-07-02 12:09:00,86.5,75.1,30.02,SE,136,21.9,21.9,69,0.00,SCT,OVC,0.01,WeatherDisplay:10.37,2013-07-02 16:09:00,
2013-07-02 12:14:00,86.1,75.2,30.02,SSE,147,25.3,25.3,70,0.00,SCT,OVC,0.01,WeatherDisplay:10.37,2013-07-02 16:14:00,
2013-07-02 12:19:00,85.5,75.0,30.03,SE,144,21.9,21.9,71,0.00,SCT,OVC,0.01,WeatherDisplay:10.37,2013-07-02 16:19:00,
2013-07-02 12:24:00,85.3,74.8,30.03,SSE,150,26.0,26.0,71,0.00,SCT,OVC,0.01,WeatherDisplay:10.37,2013-07-02 16:24:00,
2013-07-02 12:29:00,84.9,74.9,30.03,ESE,115,21.0,21.0,72,0.00,SCT,OVC,0.01,WeatherDisplay:10.37,2013-07-02 16:29:00,
2013-07-02 12:34:00,84.7,74.3,30.03,SSE,153,28.8,28.8,71,0.00,SCT,OVC,0.01,WeatherDisplay:10.37,2013-07-02 16:34:00,
2013-07-02 12:39:00,84.7,74.7,30.03,SSE,153,17.3,17.3,72,0.00,SCT,OVC,0.01,WeatherDisplay:10.37,2013-07-02 16:39:00,
2013-07-02 12:44:00,84.9,75.3,30.03,SE,126,27.6,27.6,73,0.00,SCT,OVC,0.01,WeatherDisplay:10.37,2013-07-02 16:44:00,
2013-07-02 12:49:00,84.9,75.3,30.03,ESE,123,31.1,31.1,73,0.00,SCT,OVC,0.01,WeatherDisplay:10.37,2013-07-02 16:49:00,
2013-07-02 12:54:00,84.7,74.3,30.03,SE,128,26.5,26.5,71,0.00,SCT,OVC,0.01,WeatherDisplay:10.37,2013-07-02 16:54:00,
2013-07-02 12:59:00,84.9,74.9,30.03,SSE,150,26.5,26.5,72,0.00,SCT,OVC,0.01,WeatherDisplay:10.37,2013-07-02 16:59:00,
2013-07-02 13:04:00,84.9,74.9,30.03,SSE,151,26.5,26.5,72,0.00,SCT,OVC,0.01,WeatherDisplay:10.37,2013-07-02 17:04:00,
2013-07-02 13:09:00,84.9,75.3,30.03,SE,131,26.5,26.5,73,0.00,SCT,OVC,0.01,WeatherDisplay:10.37,2013-07-02 17:09:00,
2013-07-02 13:14:00,84.9,75.7,30.03,ESE,122,13.8,13.8,74,0.00,SCT,OVC,0.01,WeatherDisplay:10.37,2013-07-02 17:14:00,
2013-07-02 13:19:00,84.9,75.3,30.03,SSE,155,24.2,24.2,73,0.00,SCT,OVC,0.01,WeatherDisplay:10.37,2013-07-02 17:19:00,
2013-07-02 13:24:00,84.7,75.5,30.03,SSE,159,19.6,19.6,74,0.00,SCT,OVC,0.01,WeatherDisplay:10.37,2013-07-02 17:24:00,
2013-07-02 13:29:00,84.7,75.9,30.03,ESE,120,23.0,23.0,75,0.00,SCT,OVC,0.01,WeatherDisplay:10.37,2013-07-02 17:29:00,
2013-07-02 13:34:00,84.5,75.7,30.03,SSE,155,19.6,19.6,75,0.00,SCT,OVC,0.01,WeatherDisplay:10.37,2013-07-02 17:34:00,
2013-07-02 13:39:00,84.3,75.9,30.03,SSE,149,17.3,17.3,76,0.00,SCT,OVC,0.01,WeatherDisplay:10.37,2013-07-02 17:39:00,
2013-07-02 13:44:00,84.1,75.7,30.03,SSE,158,32.2,32.2,76,0.00,SCT,OVC,0.01,WeatherDisplay:10.37,2013-07-02 17:44:00,
2013-07-02 13:49:00,84.0,75.2,30.03,SSE,155,12.7,12.7,75,0.00,SCT,OVC,0.01,WeatherDisplay:10.37,2013-07-02 17:49:00,
2013-07-02 13:54:00,84.1,75.7,30.03,SE,144,13.8,13.8,76,0.00,SCT,OVC,0.01,WeatherDisplay:10.37,2013-07-02 17:54:00,
2013-07-02 13:59:00,84.3,75.5,30.02,ESE,121,9.2,9.2,75,0.00,SCT,OVC,0.01,WeatherDisplay:10.37,2013-07-02 17:59:00,
2013-07-02 14:04:00,84.9,76.1,30.02,SE,146,19.6,19.6,75,0.00,SCT,OVC,0.01,WeatherDisplay:10.37,2013-07-02 18:04:00,
2013-07-02 14:09:00,85.1,75.5,30.02,SSE,149,32.2,32.2,73,0.00,SCT,OVC,0.01,WeatherDisplay:10.37,2013-07-02 18:09:00,
2013-07-02 14:14:00,85.3,75.2,30.01,SE,142,19.6,19.6,72,0.00,SCT,OVC,0.01,WeatherDisplay:10.37,2013-07-02 18:14:00,
2013-07-02 14:19:00,85.3,75.7,30.01,SSE,153,25.0,25.0,73,0.00,SCT,OVC,0.01,WeatherDisplay:10.37,2013-07-02 18:19:00,
2013-07-02 14:24:00,85.1,75.5,30.01,SE,144,8.0,8.0,73,0.00,SCT,OVC,0.01,WeatherDisplay:10.37,2013-07-02 18:24:00,
2013-07-02 14:29:00,85.5,75.4,30.01,SE,134,17.3,17.3,72,0.00,SCT,OVC,0.01,WeatherDisplay:10.37,2013-07-02 18:29:00,
2013-07-02 14:34:00,85.5,75.0,30.01,SSE,159,20.0,20.0,71,0.00,SCT,OVC,0.01,WeatherDisplay:10.37,2013-07-02 18:34:00,
2013-07-02 14:39:00,85.5,75.0,30.01,SE,146,18.4,18.4,71,0.00,SCT,OVC,0.01,WeatherDisplay:10.37,2013-07-02 18:39:00,
2013-07-02 14:44:00,85.7,75.6,30.02,ESE,111,6.9,6.9,72,0.00,SCT,OVC,0.01,WeatherDisplay:10.37,2013-07-02 18:44:00,
2013-07-02 14:49:00,85.3,74.8,30.02,SSE,159,33.4,33.4,71,0.00,SCT,OVC,0.01,WeatherDisplay:10.37,2013-07-02 18:49:00,
2013-07-02 14:54:00,85.1,74.6,30.02,ESE,118,27.6,27.6,71,0.00,SCT,OVC,0.01,WeatherDisplay:10.37,2013-07-02 18:54:00,
2013-07-02 14:59:00,84.9,74.4,30.02,SE,136,38.0,38.0,71,0.00,SCT,OVC,0.01,WeatherDisplay:10.37,2013-07-02 18:59:00,
2013-07-02 15:04:00,84.7,75.1,30.02,SSE,153,20.7,20.7,73,0.00,SCT,OVC,0.01,WeatherDisplay:10.37,2013-07-02 19:04:00,
2013-07-02 15:09:00,84.5,74.9,30.02,SSE,159,20.7,20.7,73,0.00,SCT,OVC,0.01,WeatherDisplay:10.37,2013-07-02 19:09:00,
2013-07-02 15:14:00,84.3,74.3,30.02,SE,142,17.0,17.0,72,0.00,SCT,OVC,0.01,WeatherDisplay:10.37,2013-07-02 19:14:00,
2013-07-02 15:19:00,84.3,74.3,30.02,SE,138,12.7,12.7,72,0.00,SCT,OVC,0.01,WeatherDisplay:10.37,2013-07-02 19:19:00,
2013-07-02 15:24:00,84.5,74.5,30.02,SE,133,12.0,12.0,72,0.00,SCT,OVC,0.01,WeatherDisplay:10.37,2013-07-02 19:24:00,
2013-07-02 15:29:00,84.3,74.3,30.01,SE,140,21.9,21.9,72,0.00,SCT,OVC,0.01,WeatherDisplay:10.37,2013-07-02 19:29:00,
2013-07-02 15:34:00,84.5,74.5,30.01,SSE,150,19.6,19.6,72,0.00,SCT,OVC,0.01,WeatherDisplay:10.37,2013-07-02 19:34:00,
2013-07-02 15:39:00,84.7,74.7,30.01,ESE,113,10.4,10.4,72,0.00,SCT,OVC,0.01,WeatherDisplay:10.37,2013-07-02 19:39:00,
2013-07-02 15:44:00,84.9,74.9,30.01,SE,137,16.1,16.1,72,0.00,SCT,OVC,0.01,WeatherDisplay:10.37,2013-07-02 19:44:00,
2013-07-02 15:49:00,85.5,75.0,30.01,SE,136,8.1,8.1,71,0.00,SCT,OVC,0.01,WeatherDisplay:10.37,2013-07-02 19:49:00,
2013-07-02 15:54:00,85.9,75.0,30.01,ESE,103,9.2,0.0,70,0.00,SCT,OVC,0.01,WeatherDisplay:10.37,2013-07-02 19:54:00,
2013-07-02 15:59:00,86.5,75.1,30.01,SE,135,11.0,11.0,69,0.00,SCT,OVC,0.01,WeatherDisplay:10.37,2013-07-02 19:59:00,
2013-07-02 16:04:00,86.5,74.2,30.01,SE,132,23.0,23.0,67,0.00,SCT,OVC,0.01,WeatherDisplay:10.37,2013-07-02 20:04:00,
2013-07-02 16:09:00,86.7,74.9,30.01,ESE,122,15.0,15.0,68,0.00,SCT,OVC,0.01,WeatherDisplay:10.37,2013-07-02 20:09:00,
2013-07-02 16:14:00,87.0,74.7,30.00,SE,143,16.0,16.0,67,0.00,SCT,OVC,0.01,WeatherDisplay:10.37,2013-07-02 20:14:00,
2013-07-02 16:19:00,87.0,74.3,30.00,SE,132,3.5,3.5,66,0.00,SCT,OVC,0.01,WeatherDisplay:10.37,2013-07-02 20:19:00,
2013-07-02 16:24:00,86.7,74.4,30.00,ESE,123,18.4,18.4,67,0.00,SCT,OVC,0.01,WeatherDisplay:10.37,2013-07-02 20:24:00,
2013-07-02 16:29:00,86.5,74.2,29.99,SSE,150,12.0,12.0,67,0.00,SCT,OVC,0.01,WeatherDisplay:10.37,2013-07-02 20:29:00,
2013-07-02 16:34:00,86.3,74.5,29.99,East,84,15.0,15.0,68,0.00,SCT,OVC,0.01,WeatherDisplay:10.37,2013-07-02 20:34:00,
2013-07-02 16:39:00,86.1,74.7,29.99,SSE,161,18.0,18.0,69,0.00,SCT,OVC,0.01,WeatherDisplay:10.37,2013-07-02 20:39:00,
2013-07-02 16:44:00,85.3,74.4,29.99,South,169,26.5,26.5,70,0.00,SCT,OVC,0.01,WeatherDisplay:10.37,2013-07-02 20:44:00,
2013-07-02 16:49:00,84.5,74.5,29.99,South,169,11.5,11.5,72,0.00,SCT,OVC,0.01,WeatherDisplay:10.37,2013-07-02 20:49:00,
2013-07-02 16:54:00,84.0,74.0,29.99,SSE,161,20.7,20.7,72,0.00,SCT,OVC,0.01,WeatherDisplay:10.37,2013-07-02 20:54:00,
2013-07-02 16:59:00,83.8,74.2,29.99,South,185,10.4,10.4,73,0.00,SCT,OVC,0.01,WeatherDisplay:10.37,2013-07-02 20:59:00,
2013-07-02 17:04:00,83.6,74.4,29.99,South,174,6.9,6.9,74,0.00,SCT,OVC,0.01,WeatherDisplay:10.37,2013-07-02 21:04:00,
2013-07-02 17:10:00,83.6,74.4,29.99,SSE,154,10.0,10.0,74,0.00,SCT,OVC,0.01,WeatherDisplay:10.37,2013-07-02 21:10:00,
2013-07-02 17:15:00,83.6,74.4,29.99,SE,137,11.5,11.5,74,0.00,SCT,OVC,0.01,WeatherDisplay:10.37,2013-07-02 21:15:00,
2013-07-02 17:20:00,83.8,74.6,29.99,SE,142,11.5,11.5,74,0.00,SCT,OVC,0.01,WeatherDisplay:10.37,2013-07-02 21:20:00,
2013-07-02 17:25:00,83.8,74.6,29.99,SE,134,9.2,9.2,74,0.00,SCT,OVC,0.01,WeatherDisplay:10.37,2013-07-02 21:25:00,
2013-07-02 17:30:00,83.8,74.6,29.99,SE,138,3.5,3.5,74,0.00,SCT,OVC,0.01,WeatherDisplay:10.37,2013-07-02 21:30:00,
2013-07-02 17:35:00,83.6,74.8,29.99,SSE,157,9.2,9.2,75,0.00,SCT,OVC,0.01,WeatherDisplay:10.37,2013-07-02 21:35:00,
2013-07-02 17:40:00,83.6,74.8,29.99,SSE,150,11.5,11.5,75,0.00,SCT,OVC,0.01,WeatherDisplay:10.37,2013-07-02 21:40:00,
2013-07-02 17:45:00,83.4,74.6,30.00,SSW,193,3.5,3.5,75,0.00,SCT,OVC,0.01,WeatherDisplay:10.37,2013-07-02 21:45:00,
2013-07-02 17:50:00,83.4,74.6,30.00,SSE,157,8.1,8.1,75,0.00,SCT,OVC,0.01,WeatherDisplay:10.37,2013-07-02 21:50:00,
2013-07-02 17:55:00,83.4,74.2,30.00,SE,129,9.2,9.2,74,0.00,SCT,OVC,0.01,WeatherDisplay:10.37,2013-07-02 21:55:00,
2013-07-02 18:00:00,83.4,74.2,30.01,SE,144,0.0,0.0,74,0.00,SCT,OVC,0.01,WeatherDisplay:10.37,2013-07-02 22:00:00,
2013-07-02 18:05:00,83.4,74.2,30.01,SSE,166,0.0,0.0,74,0.00,SCT,OVC,0.01,WeatherDisplay:10.37,2013-07-02 22:05:00,
2013-07-02 18:10:00,83.2,74.0,30.01,South,188,1.2,0.0,74,0.00,SCT,OVC,0.01,WeatherDisplay:10.37,2013-07-02 22:10:00,
2013-07-02 18:15:00,83.2,74.0,30.01,South,175,0.0,0.0,74,0.00,SCT,OVC,0.01,WeatherDisplay:10.37,2013-07-02 22:15:00,
2013-07-02 18:20:00,83.2,74.0,30.01,South,180,0.0,0.0,74,0.00,SCT,OVC,0.01,WeatherDisplay:10.37,2013-07-02 22:20:00,
2013-07-02 18:25:00,83.2,74.0,30.01,SSE,158,3.5,3.5,74,0.00,SCT,OVC,0.01,WeatherDisplay:10.37,2013-07-02 22:25:00,
2013-07-02 18:30:00,83.2,74.0,30.03,SSE,158,0.0,0.0,74,0.00,SCT,OVC,0.01,WeatherDisplay:10.37,2013-07-02 22:30:00,
2013-07-02 18:35:00,83.0,73.4,30.03,South,190,0.0,0.0,73,0.00,SCT,OVC,0.01,WeatherDisplay:10.37,2013-07-02 22:35:00,
2013-07-02 18:40:00,83.0,73.0,30.03,South,174,15.0,15.0,72,0.00,SCT,OVC,0.01,WeatherDisplay:10.37,2013-07-02 22:40:00,
2013-07-02 18:45:00,83.0,73.0,30.04,SSW,208,8.1,8.1,72,0.00,SCT,OVC,0.01,WeatherDisplay:10.37,2013-07-02 22:45:00,
2013-07-02 18:50:00,83.0,73.0,30.04,South,175,0.0,0.0,72,0.00,SCT,OVC,0.01,WeatherDisplay:10.37,2013-07-02 22:50:00,
2013-07-02 18:55:00,83.0,73.0,30.04,SSW,198,7.0,7.0,72,0.00,SCT,OVC,0.01,WeatherDisplay:10.37,2013-07-02 22:55:00,
2013-07-02 19:00:00,83.0,73.4,30.04,SSW,201,2.0,2.0,73,0.00,SCT,OVC,0.01,WeatherDisplay:10.37,2013-07-02 23:00:00,
2013-07-02 19:05:00,82.8,73.3,30.04,SSW,205,0.0,0.0,73,0.00,SCT,OVC,0.01,WeatherDisplay:10.37,2013-07-02 23:05:00,
2013-07-02 19:10:00,82.6,72.7,30.04,SSW,204,4.6,4.6,72,0.00,SCT,OVC,0.01,WeatherDisplay:10.37,2013-07-02 23:10:00,
2013-07-02 19:15:00,82.4,72.5,30.04,SSW,209,3.5,0.0,72,0.00,SCT,OVC,0.01,WeatherDisplay:10.37,2013-07-02 23:15:00,
2013-07-02 19:20:00,82.2,72.3,30.04,SSW,210,0.0,0.0,72,0.00,SCT,OVC,0.01,WeatherDisplay:10.37,2013-07-02 23:20:00,
2013-07-02 19:25:00,82.0,72.5,30.04,SSW,210,0.0,0.0,73,0.00,SCT,OVC,0.01,WeatherDisplay:10.37,2013-07-02 23:25:00,
2013-07-02 19:29:00,82.0,72.9,30.04,SW,233,0.0,0.0,74,0.00,SCT,OVC,0.01,WeatherDisplay:10.37,2013-07-02 23:29:00,
2013-07-02 19:34:00,81.8,72.7,30.04,SW,235,0.0,0.0,74,0.00,SCT,OVC,0.01,WeatherDisplay:10.37,2013-07-02 23:34:00,
2013-07-02 19:39:00,81.6,72.5,30.04,SW,235,0.0,0.0,74,0.00,SCT,OVC,0.01,WeatherDisplay:10.37,2013-07-02 23:39:00,
2013-07-02 19:44:00,81.6,72.9,30.04,SW,232,4.6,4.6,75,0.00,SCT,OVC,0.01,WeatherDisplay:10.37,2013-07-02 23:44:00,
2013-07-02 19:49:00,81.4,73.1,30.04,WSW,238,3.5,3.5,76,0.00,SCT,OVC,0.01,WeatherDisplay:10.37,2013-07-02 23:49:00,
2013-07-02 19:54:00,81.2,73.3,30.04,SW,234,8.1,8.1,77,0.00,SCT,OVC,0.01,WeatherDisplay:10.37,2013-07-02 23:54:00,
2013-07-02 19:59:00,81.1,73.6,30.05,SW,234,4.6,4.6,78,0.00,SCT,OVC,0.01,WeatherDisplay:10.37,2013-07-02 23:59:00,
2013-07-02 20:01:00,81.1,73.6,30.05,SW,235,0.0,0.0,78,0.00,SCT,OVC,0.01,WeatherDisplay:10.37,2013-07-03 00:01:00,
2013-07-02 20:06:00,81.1,73.6,30.05,SW,235,1.0,0.0,78,0.00,SCT,OVC,0.01,WeatherDisplay:10.37,2013-07-03 00:06:00,
2013-07-02 20:11:00,80.9,73.8,30.05,WSW,248,13.8,13.8,79,0.00,SCT,OVC,0.01,WeatherDisplay:10.37,2013-07-03 00:11:00,
2013-07-02 20:16:00,80.3,73.2,30.05,WSW,246,11.5,11.5,79,0.00,SCT,OVC,0.01,WeatherDisplay:10.37,2013-07-03 00:16:00,
2013-07-02 20:21:00,79.9,73.2,30.05,WSW,243,2.3,2.3,80,0.00,SCT,OVC,0.01,WeatherDisplay:10.37,2013-07-03 00:21:00,
2013-07-02 20:23:00,79.8,73.1,30.05,WSW,243,0.0,0.0,80,0.00,SCT,OVC,0.01,WeatherDisplay:10.37,2013-07-03 00:23:00,
2013-07-02 20:24:00,79.8,73.1,30.05,WSW,243,0.0,0.0,80,0.00,SCT,OVC,0.01,WeatherDisplay:10.37,2013-07-03 00:24:00,
2013-07-02 20:28:00,79.6,73.3,30.05,West,261,3.0,3.0,81,0.00,SCT,OVC,0.01,WeatherDisplay:10.37,2013-07-03 00:28:00,
2013-07-02 20:33:00,79.4,73.1,30.06,West,259,0.0,0.0,81,0.00,SCT,OVC,0.01,WeatherDisplay:10.37,2013-07-03 00:33:00,
2013-07-02 20:38:00,79.2,72.9,30.06,West,261,0.0,0.0,81,0.00,SCT,OVC,0.01,WeatherDisplay:10.37,2013-07-03 00:38:00,
2013-07-02 20:43:00,79.0,72.7,30.06,West,279,0.0,0.0,81,0.00,SCT,OVC,0.01,WeatherDisplay:10.37,2013-07-03 00:43:00,
2013-07-02 20:48:00,79.0,72.7,30.06,West,281,0.0,0.0,81,0.00,SCT,OVC,0.01,WeatherDisplay:10.37,2013-07-03 00:48:00,
2013-07-02 20:53:00,79.0,72.3,30.06,WNW,284,0.0,0.0,80,0.00,SCT,OVC,0.01,WeatherDisplay:10.37,2013-07-03 00:53:00,
2013-07-02 20:58:00,78.8,72.5,30.06,WNW,289,0.0,0.0,81,0.00,SCT,OVC,0.01,WeatherDisplay:10.37,2013-07-03 00:58:00,
2013-07-02 21:00:00,78.8,72.5,30.06,WNW,289,0.0,0.0,81,0.00,SCT,OVC,0.01,WeatherDisplay:10.37,2013-07-03 01:00:00,
2013-07-02 21:03:00,78.6,72.3,30.06,WNW,290,0.0,0.0,81,0.00,SCT,OVC,0.01,WeatherDisplay:10.37,2013-07-03 01:03:00,
2013-07-02 21:08:00,78.5,72.2,30.06,WNW,290,0.0,0.0,81,0.00,SCT,OVC,0.01,WeatherDisplay:10.37,2013-07-03 01:08:00,
2013-07-02 21:09:00,78.5,72.2,30.06,WNW,290,0.0,0.0,81,0.00,SCT,OVC,0.01,WeatherDisplay:10.37,2013-07-03 01:09:00,
2013-07-02 21:14:00,78.5,72.2,30.07,WNW,290,0.0,0.0,81,0.00,SCT,OVC,0.01,WeatherDisplay:10.37,2013-07-03 01:14:00,
2013-07-02 21:19:00,78.3,72.3,30.07,WNW,290,0.0,0.0,82,0.00,SCT,OVC,0.01,WeatherDisplay:10.37,2013-07-03 01:19:00,
2013-07-02 21:24:00,78.1,72.9,30.07,WNW,290,0.0,0.0,84,0.00,SCT,OVC,0.01,WeatherDisplay:10.37,2013-07-03 01:24:00,
2013-07-02 21:26:00,78.3,73.1,30.07,WNW,290,0.0,0.0,84,0.00,SCT,OVC,0.01,WeatherDisplay:10.37,2013-07-03 01:26:00,
2013-07-02 21:31:00,78.3,73.1,30.07,WNW,289,0.0,0.0,84,0.00,SCT,OVC,0.01,WeatherDisplay:10.37,2013-07-03 01:31:00,
2013-07-02 21:36:00,78.1,72.9,30.07,WNW,290,0.0,0.0,84,0.00,SCT,OVC,0.01,WeatherDisplay:10.37,2013-07-03 01:36:00,
2013-07-02 21:41:00,78.1,73.2,30.07,WNW,290,0.0,0.0,85,0.00,SCT,OVC,0.01,WeatherDisplay:10.37,2013-07-03 01:41:00,
2013-07-02 21:46:00,78.1,72.9,30.07,WNW,290,0.0,0.0,84,0.00,SCT,OVC,0.01,WeatherDisplay:10.37,2013-07-03 01:46:00,
2013-07-02 21:49:00,78.1,73.2,30.07,WNW,290,0.0,0.0,85,0.00,SCT,OVC,0.01,WeatherDisplay:10.37,2013-07-03 01:49:00,
2013-07-02 21:51:00,78.3,73.4,30.07,WNW,290,0.0,0.0,85,0.00,SCT,OVC,0.01,WeatherDisplay:10.37,2013-07-03 01:51:00,
2013-07-02 21:56:00,78.1,73.2,30.07,WNW,290,0.0,0.0,85,0.00,SCT,OVC,0.01,WeatherDisplay:10.37,2013-07-03 01:56:00,
2013-07-02 22:01:00,77.9,73.0,30.07,WNW,290,0.0,0.0,85,0.00,SCT,OVC,0.01,WeatherDisplay:10.37,2013-07-03 02:01:00,
2013-07-02 22:06:00,77.7,72.8,30.07,WNW,290,0.0,0.0,85,0.00,SCT,OVC,0.01,WeatherDisplay:10.37,2013-07-03 02:06:00,
2013-07-02 22:11:00,77.4,72.9,30.07,WNW,290,0.0,0.0,86,0.00,SCT,OVC,0.01,WeatherDisplay:10.37,2013-07-03 02:11:00,
2013-07-02 22:17:00,77.2,72.7,30.08,WNW,290,0.0,0.0,86,0.00,SCT,OVC,0.01,WeatherDisplay:10.37,2013-07-03 02:17:00,
2013-07-02 22:22:00,77.2,73.0,30.08,WNW,290,0.0,0.0,87,0.00,SCT,OVC,0.01,WeatherDisplay:10.37,2013-07-03 02:22:00,
2013-07-02 22:27:00,77.0,72.8,30.08,WNW,290,0.0,0.0,87,0.00,SCT,OVC,0.01,WeatherDisplay:10.37,2013-07-03 02:27:00,
2013-07-02 22:32:00,77.0,72.8,30.08,WNW,290,0.0,0.0,87,0.00,SCT,OVC,0.01,WeatherDisplay:10.37,2013-07-03 02:32:00,
2013-07-02 22:37:00,76.8,73.0,30.08,WNW,290,0.0,0.0,88,0.00,SCT,OVC,0.01,WeatherDisplay:10.37,2013-07-03 02:37:00,
2013-07-02 22:42:00,77.0,73.2,30.08,WNW,290,0.0,0.0,88,0.00,SCT,OVC,0.01,WeatherDisplay:10.37,2013-07-03 02:42:00,
2013-07-02 22:46:00,77.0,73.2,30.07,WNW,290,0.0,0.0,88,0.00,SCT,OVC,0.01,WeatherDisplay:10.37,2013-07-03 02:46:00,
2013-07-02 22:51:00,77.2,73.4,30.07,WNW,290,0.0,0.0,88,0.00,SCT,OVC,0.01,WeatherDisplay:10.37,2013-07-03 02:51:00,
2013-07-02 22:57:00,77.4,73.2,30.07,WNW,290,0.0,0.0,87,0.00,SCT,OVC,0.01,WeatherDisplay:10.37,2013-07-03 02:57:00,
2013-07-02 23:03:00,77.4,73.2,30.07,WNW,290,0.0,0.0,87,0.00,SCT,OVC,0.01,WeatherDisplay:10.37,2013-07-03 03:03:00,
2013-07-02 23:08:00,77.4,73.2,30.07,WNW,290,0.0,0.0,87,0.00,SCT,OVC,0.01,WeatherDisplay:10.37,2013-07-03 03:08:00,
2013-07-02 23:14:00,77.4,73.2,30.07,WNW,290,0.0,0.0,87,0.00,SCT,OVC,0.01,WeatherDisplay:10.37,2013-07-03 03:14:00,
2013-07-02 23:20:00,77.4,73.2,30.07,WNW,290,0.0,0.0,87,0.00,SCT,OVC,0.01,WeatherDisplay:10.37,2013-07-03 03:20:00,
2013-07-02 23:21:00,77.4,73.2,30.07,WNW,290,0.0,0.0,87,0.00,SCT,OVC,0.01,WeatherDisplay:10.37,2013-07-03 03:21:00,
2013-07-02 23:26:00,77.2,73.0,30.07,WNW,290,0.0,0.0,87,0.00,SCT,OVC,0.01,WeatherDisplay:10.37,2013-07-03 03:26:00,
2013-07-02 23:31:00,77.0,73.2,30.07,WNW,290,0.0,0.0,88,0.00,SCT,OVC,0.01,WeatherDisplay:10.37,2013-07-03 03:31:00,
2013-07-02 23:35:00,76.8,73.0,30.07,WNW,290,0.0,0.0,88,0.00,SCT,OVC,0.01,WeatherDisplay:10.37,2013-07-03 03:35:00,
2013-07-02 23:39:00,76.8,73.0,30.07,WNW,290,0.0,0.0,88,0.00,SCT,OVC,0.01,WeatherDisplay:10.37,2013-07-03 03:39:00,
2013-07-02 23:44:00,76.7,72.9,30.07,WNW,290,0.0,0.0,88,0.00,SCT,OVC,0.01,WeatherDisplay:10.37,2013-07-03 03:44:00,
2013-07-02 23:49:00,76.7,73.2,30.07,WNW,290,0.0,0.0,89,0.00,SCT,OVC,0.01,WeatherDisplay:10.37,2013-07-03 03:49:00,
2013-07-02 23:55:00,76.7,73.2,30.07,WNW,292,0.0,0.0,89,0.00,SCT,OVC,0.01,WeatherDisplay:10.37,2013-07-03 03:55:00,